Time,TemperatureF,DewpointF,PressureIn,WindDirection,WindDirectionDegrees,WindSpeedMPH,WindSpeedGustMPH,Humidity,HourlyPrecipIn,Conditions,Clouds,dailyrainin,SolarRadiationWatts/m^2,SoftwareType,DateUTC
2013-01-28 00:01:00,43.0,42.0,-100.00,NNW,346,3.0,6.0,96,0.01,,,-99.99,0.000000,,2013-01-28 08:01:00,
2013-01-28 00:11:00,43.0,42.0,-100.00,NNW,346,3.0,6.0,96,0.01,,,-99.99,0.000000,,2013-01-28 08:11:00,
2013-01-28 00:32:00,43.0,42.0,-100.00,NNW,341,3.0,6.0,95,0.02,,,1.01,0.000000,,2013-01-28 08:32:00,
2013-01-28 00:42:00,43.0,42.0,-100.00,NNW,341,3.0,6.0,95,0.02,,,1.01,0.000000,,2013-01-28 08:42:00,
2013-01-28 00:52:00,43.0,42.0,-100.00,NNW,341,3.0,6.0,95,0.02,,,1.01,0.000000,,2013-01-28 08:52:00,
2013-01-28 01:01:00,43.0,42.0,-100.00,NNW,341,3.0,6.0,95,0.02,,,1.01,0.000000,,2013-01-28 09:01:00,
2013-01-28 01:11:00,43.0,42.0,-100.00,NNW,341,3.0,6.0,95,0.02,,,1.01,0.000000,,2013-01-28 09:11:00,
2013-01-28 01:32:00,42.0,41.0,-100.00,NW,323,2.0,5.0,95,0.00,,,0.96,0.000000,,2013-01-28 09:32:00,
2013-01-28 01:42:00,42.0,41.0,-100.00,NW,323,2.0,5.0,95,0.00,,,0.96,0.000000,,2013-01-28 09:42:00,
2013-01-28 01:52:00,42.0,41.0,-100.00,NW,323,2.0,5.0,95,0.00,,,0.96,0.000000,,2013-01-28 09:52:00,
2013-01-28 02:01:00,42.0,41.0,-100.00,NW,323,2.0,5.0,95,0.00,,,0.96,0.000000,,2013-01-28 10:01:00,
2013-01-28 02:11:00,42.0,41.0,-100.00,NW,323,2.0,5.0,95,0.00,,,0.96,0.000000,,2013-01-28 10:11:00,
2013-01-28 02:32:00,42.0,40.0,-100.00,North,6,2.0,6.0,94,0.03,,,0.97,0.000000,,2013-01-28 10:32:00,
2013-01-28 02:42:00,42.0,40.0,-100.00,North,6,2.0,6.0,94,0.03,,,0.97,0.000000,,2013-01-28 10:42:00,
2013-01-28 02:52:00,42.0,40.0,-100.00,North,6,2.0,6.0,94,0.03,,,0.97,0.000000,,2013-01-28 10:52:00,
2013-01-28 03:02:00,42.0,40.0,-100.00,North,6,2.0,6.0,94,0.03,,,0.97,0.000000,,2013-01-28 11:02:00,
2013-01-28 03:11:00,42.0,40.0,-100.00,North,6,2.0,6.0,94,0.03,,,0.97,0.000000,,2013-01-28 11:11:00,
2013-01-28 03:32:00,42.0,40.0,-100.00,NW,316,2.0,5.0,92,0.01,,,0.95,0.000000,,2013-01-28 11:32:00,
2013-01-28 03:42:00,42.0,40.0,-100.00,NW,316,2.0,5.0,92,0.01,,,0.95,0.000000,,2013-01-28 11:42:00,
2013-01-28 03:52:00,42.0,40.0,-100.00,NW,316,2.0,5.0,92,0.01,,,0.95,0.000000,,2013-01-28 11:52:00,
2013-01-28 04:03:00,42.0,40.0,-100.00,NW,316,2.0,5.0,92,0.01,,,0.95,0.000000,,2013-01-28 12:03:00,
2013-01-28 04:11:00,42.0,40.0,-100.00,NW,316,2.0,5.0,92,0.01,,,0.95,0.000000,,2013-01-28 12:11:00,
2013-01-28 04:33:00,42.0,40.0,-100.00,NNW,346,3.0,5.0,93,0.01,,,0.95,0.000000,,2013-01-28 12:33:00,
2013-01-28 04:42:00,42.0,40.0,-100.00,NNW,346,3.0,5.0,93,0.01,,,0.95,0.000000,,2013-01-28 12:42:00,
2013-01-28 04:52:00,42.0,40.0,-100.00,NNW,346,3.0,5.0,93,0.01,,,0.95,0.000000,,2013-01-28 12:52:00,
2013-01-28 05:02:00,42.0,40.0,-100.00,NNW,346,3.0,5.0,93,0.01,,,0.95,0.000000,,2013-01-28 13:02:00,
2013-01-28 05:11:00,42.0,40.0,-100.00,NNW,346,3.0,5.0,93,0.01,,,0.95,0.000000,,2013-01-28 13:11:00,
2013-01-28 05:33:00,42.0,40.0,-100.00,NNW,334,2.0,4.0,94,0.01,,,0.94,0.000000,,2013-01-28 13:33:00,
2013-01-28 05:42:00,42.0,40.0,-100.00,NNW,334,2.0,4.0,94,0.01,,,0.94,0.000000,,2013-01-28 13:42:00,
2013-01-28 05:53:00,42.0,40.0,-100.00,NNW,334,2.0,4.0,94,0.01,,,0.94,0.000000,,2013-01-28 13:53:00,
2013-01-28 06:02:00,42.0,40.0,-100.00,NNW,334,2.0,4.0,94,0.01,,,0.94,0.000000,,2013-01-28 14:02:00,
2013-01-28 06:11:00,42.0,40.0,-100.00,NNW,334,2.0,4.0,94,0.01,,,0.94,0.000000,,2013-01-28 14:11:00,
2013-01-28 06:43:00,42.0,40.0,-100.00,NNW,328,2.0,4.0,93,0.00,,,0.88,0.000000,,2013-01-28 14:43:00,
2013-01-28 06:53:00,42.0,40.0,-100.00,NNW,328,2.0,4.0,93,0.00,,,0.88,0.000000,,2013-01-28 14:53:00,
2013-01-28 07:03:00,42.0,40.0,-100.00,NNW,328,2.0,4.0,93,0.00,,,0.88,0.000000,,2013-01-28 15:03:00,
2013-01-28 07:12:00,42.0,40.0,-100.00,NNW,328,2.0,4.0,93,0.00,,,0.88,0.000000,,2013-01-28 15:12:00,
2013-01-28 07:33:00,42.0,40.0,-100.00,NNW,333,2.0,5.0,92,0.01,,,0.88,0.000000,,2013-01-28 15:33:00,
2013-01-28 07:43:00,42.0,40.0,-100.00,NNW,333,2.0,5.0,92,0.01,,,0.88,0.000000,,2013-01-28 15:43:00,
2013-01-28 07:53:00,42.0,40.0,-100.00,NNW,333,2.0,5.0,92,0.01,,,0.88,0.000000,,2013-01-28 15:53:00,
2013-01-28 08:03:00,42.0,40.0,-100.00,NNW,333,2.0,5.0,92,0.01,,,0.88,0.000000,,2013-01-28 16:03:00,
2013-01-28 08:11:00,42.0,40.0,-100.00,NNW,333,2.0,5.0,92,0.01,,,0.88,0.000000,,2013-01-28 16:11:00,
2013-01-28 08:33:00,42.0,41.0,-100.00,WNW,299,2.0,5.0,95,0.00,,,0.87,6.000000,,2013-01-28 16:33:00,
2013-01-28 08:43:00,42.0,41.0,-100.00,WNW,299,2.0,5.0,95,0.00,,,0.87,6.000000,,2013-01-28 16:43:00,
2013-01-28 08:53:00,42.0,41.0,-100.00,WNW,299,2.0,5.0,95,0.00,,,0.87,6.000000,,2013-01-28 16:53:00,
2013-01-28 09:01:00,42.0,41.0,-100.00,WNW,299,2.0,5.0,95,0.00,,,0.87,6.000000,,2013-01-28 17:01:00,
2013-01-28 09:11:00,42.0,41.0,-100.00,WNW,299,2.0,5.0,95,0.00,,,0.87,6.000000,,2013-01-28 17:11:00,
2013-01-28 09:33:00,43.0,42.0,-100.00,WNW,296,3.0,5.0,96,0.01,,,0.88,25.000000,,2013-01-28 17:33:00,
2013-01-28 09:42:00,43.0,42.0,-100.00,WNW,296,3.0,5.0,96,0.01,,,0.88,25.000000,,2013-01-28 17:42:00,
2013-01-28 09:52:00,43.0,42.0,-100.00,WNW,296,3.0,5.0,96,0.01,,,0.88,25.000000,,2013-01-28 17:52:00,
2013-01-28 10:02:00,43.0,42.0,-100.00,WNW,296,3.0,5.0,96,0.01,,,0.88,25.000000,,2013-01-28 18:02:00,
2013-01-28 10:12:00,43.0,42.0,-100.00,WNW,296,3.0,5.0,96,0.01,,,0.88,25.000000,,2013-01-28 18:12:00,
2013-01-28 10:33:00,44.0,43.0,-100.00,NNW,335,3.0,5.0,96,0.01,,,0.89,72.000000,,2013-01-28 18:33:00,
2013-01-28 10:42:00,44.0,43.0,-100.00,NNW,335,3.0,5.0,96,0.01,,,0.89,72.000000,,2013-01-28 18:42:00,
2013-01-28 10:52:00,44.0,43.0,-100.00,NNW,335,3.0,5.0,96,0.01,,,0.89,72.000000,,2013-01-28 18:52:00,
2013-01-28 11:02:00,44.0,43.0,-100.00,NNW,335,3.0,5.0,96,0.01,,,0.89,72.000000,,2013-01-28 19:02:00,
2013-01-28 11:12:00,44.0,43.0,-100.00,NNW,335,3.0,5.0,96,0.01,,,0.89,72.000000,,2013-01-28 19:12:00,
2013-01-28 11:42:00,44.0,43.0,-100.00,WNW,302,4.0,9.0,95,0.02,,,0.90,121.000000,,2013-01-28 19:42:00,
2013-01-28 11:52:00,44.0,43.0,-100.00,WNW,302,4.0,9.0,95,0.02,,,0.90,121.000000,,2013-01-28 19:52:00,
2013-01-28 12:02:00,44.0,43.0,-100.00,WNW,302,4.0,9.0,95,0.02,,,0.90,121.000000,,2013-01-28 20:02:00,
2013-01-28 12:11:00,44.0,43.0,-100.00,WNW,302,4.0,9.0,95,0.02,,,0.90,121.000000,,2013-01-28 20:11:00,
2013-01-28 12:33:00,45.0,44.0,-100.00,NW,313,3.0,7.0,96,0.02,,,0.90,129.000000,,2013-01-28 20:33:00,
2013-01-28 12:43:00,45.0,44.0,-100.00,NW,313,3.0,7.0,96,0.02,,,0.90,129.000000,,2013-01-28 20:43:00,
2013-01-28 12:52:00,45.0,44.0,-100.00,NW,313,3.0,7.0,96,0.02,,,0.90,129.000000,,2013-01-28 20:52:00,
2013-01-28 13:02:00,45.0,44.0,-100.00,NW,313,3.0,7.0,96,0.02,,,0.90,129.000000,,2013-01-28 21:02:00,
2013-01-28 13:11:00,45.0,44.0,-100.00,NW,313,3.0,7.0,96,0.02,,,0.90,129.000000,,2013-01-28 21:11:00,
2013-01-28 13:33:00,45.0,43.0,-100.00,WNW,296,4.0,7.0,94,0.03,,,0.92,161.000000,,2013-01-28 21:33:00,
2013-01-28 13:43:00,45.0,43.0,-100.00,WNW,296,4.0,7.0,94,0.03,,,0.92,161.000000,,2013-01-28 21:43:00,
2013-01-28 13:53:00,45.0,43.0,-100.00,WNW,296,4.0,7.0,94,0.03,,,0.92,161.000000,,2013-01-28 21:53:00,
2013-01-28 14:01:00,45.0,43.0,-100.00,WNW,296,4.0,7.0,94,0.03,,,0.92,161.000000,,2013-01-28 22:01:00,
2013-01-28 14:11:00,45.0,43.0,-100.00,WNW,296,4.0,7.0,94,0.03,,,0.92,161.000000,,2013-01-28 22:11:00,
2013-01-28 14:33:00,45.0,43.0,-100.00,WNW,301,4.0,6.0,92,0.00,,,-99.99,185.000000,,2013-01-28 22:33:00,
2013-01-28 14:42:00,45.0,43.0,-100.00,WNW,301,4.0,6.0,92,0.00,,,-99.99,185.000000,,2013-01-28 22:42:00,
2013-01-28 14:52:00,45.0,43.0,-100.00,WNW,301,4.0,6.0,92,0.00,,,-99.99,185.000000,,2013-01-28 22:52:00,
2013-01-28 15:01:00,45.0,43.0,-100.00,WNW,301,4.0,6.0,92,0.00,,,-99.99,185.000000,,2013-01-28 23:01:00,
2013-01-28 15:11:00,45.0,43.0,-100.00,WNW,301,4.0,6.0,92,0.00,,,-99.99,185.000000,,2013-01-28 23:11:00,
2013-01-28 15:33:00,44.0,42.0,-100.00,WNW,292,4.0,8.0,92,0.00,,,0.85,136.000000,,2013-01-28 23:33:00,
2013-01-28 15:42:00,44.0,42.0,-100.00,WNW,292,4.0,8.0,92,0.00,,,0.85,136.000000,,2013-01-28 23:42:00,
2013-01-28 15:53:00,44.0,42.0,-100.00,WNW,292,4.0,8.0,92,0.00,,,0.85,136.000000,,2013-01-28 23:53:00,
2013-01-28 16:02:00,44.0,42.0,-100.00,WNW,292,4.0,8.0,92,0.00,,,0.85,136.000000,,2013-01-29 00:02:00,
2013-01-28 16:11:00,44.0,42.0,-100.00,WNW,292,4.0,8.0,92,0.00,,,0.85,136.000000,,2013-01-29 00:11:00,
2013-01-28 16:33:00,44.0,42.0,-100.00,WNW,301,3.0,7.0,92,0.00,,,0.76,86.000000,,2013-01-29 00:33:00,
2013-01-28 16:42:00,44.0,42.0,-100.00,WNW,301,3.0,7.0,92,0.00,,,0.76,86.000000,,2013-01-29 00:42:00,
2013-01-28 16:52:00,44.0,42.0,-100.00,WNW,301,3.0,7.0,92,0.00,,,0.76,86.000000,,2013-01-29 00:52:00,
2013-01-28 17:02:00,44.0,42.0,-100.00,WNW,301,3.0,7.0,92,0.00,,,0.76,86.000000,,2013-01-29 01:02:00,
2013-01-28 17:11:00,44.0,42.0,-100.00,WNW,301,3.0,7.0,92,0.00,,,0.76,86.000000,,2013-01-29 01:11:00,
2013-01-28 17:32:00,43.0,42.0,-100.00,WNW,301,3.0,6.0,96,0.01,,,0.70,23.000000,,2013-01-29 01:32:00,
2013-01-28 17:42:00,43.0,42.0,-100.00,WNW,301,3.0,6.0,96,0.01,,,0.70,23.000000,,2013-01-29 01:42:00,
2013-01-28 17:52:00,43.0,42.0,-100.00,WNW,301,3.0,6.0,96,0.01,,,0.70,23.000000,,2013-01-29 01:52:00,
2013-01-28 18:01:00,43.0,42.0,-100.00,WNW,301,3.0,6.0,96,0.01,,,0.70,23.000000,,2013-01-29 02:01:00,
2013-01-28 18:11:00,43.0,42.0,-100.00,WNW,301,3.0,6.0,96,0.01,,,0.70,23.000000,,2013-01-29 02:11:00,
2013-01-28 18:42:00,43.0,42.0,-100.00,West,275,2.0,5.0,96,0.01,,,0.56,0.000000,,2013-01-29 02:42:00,
2013-01-28 18:53:00,43.0,42.0,-100.00,West,275,2.0,5.0,96,0.01,,,0.56,0.000000,,2013-01-29 02:53:00,
2013-01-28 19:02:00,43.0,42.0,-100.00,West,275,2.0,5.0,96,0.01,,,0.56,0.000000,,2013-01-29 03:02:00,
2013-01-28 19:11:00,43.0,42.0,-100.00,West,275,2.0,5.0,96,0.01,,,0.56,0.000000,,2013-01-29 03:11:00,
2013-01-28 19:32:00,43.0,42.0,-100.00,West,274,3.0,6.0,97,0.00,,,0.46,0.000000,,2013-01-29 03:32:00,
2013-01-28 19:42:00,43.0,42.0,-100.00,West,274,3.0,6.0,97,0.00,,,0.46,0.000000,,2013-01-29 03:42:00,
2013-01-28 19:53:00,43.0,42.0,-100.00,West,274,3.0,6.0,97,0.00,,,0.46,0.000000,,2013-01-29 03:53:00,
2013-01-28 20:01:00,43.0,42.0,-100.00,West,274,3.0,6.0,97,0.00,,,0.46,0.000000,,2013-01-29 04:01:00,
2013-01-28 20:11:00,43.0,42.0,-100.00,West,274,3.0,6.0,97,0.00,,,0.46,0.000000,,2013-01-29 04:11:00,
2013-01-28 20:32:00,43.0,42.0,-100.00,West,274,3.0,7.0,97,0.00,,,0.38,0.000000,,2013-01-29 04:32:00,
2013-01-28 20:42:00,43.0,42.0,-100.00,West,274,3.0,7.0,97,0.00,,,0.38,0.000000,,2013-01-29 04:42:00,
2013-01-28 20:52:00,43.0,42.0,-100.00,West,274,3.0,7.0,97,0.00,,,0.38,0.000000,,2013-01-29 04:52:00,
2013-01-28 21:03:00,43.0,42.0,-100.00,West,274,3.0,7.0,97,0.00,,,0.38,0.000000,,2013-01-29 05:03:00,
2013-01-28 21:12:00,43.0,42.0,-100.00,West,274,3.0,7.0,97,0.00,,,0.38,0.000000,,2013-01-29 05:12:00,
2013-01-28 21:32:00,43.0,42.0,-100.00,WNW,297,4.0,9.0,97,0.01,,,0.31,0.000000,,2013-01-29 05:32:00,
2013-01-28 21:43:00,43.0,42.0,-100.00,WNW,297,4.0,9.0,97,0.01,,,0.31,0.000000,,2013-01-29 05:43:00,
2013-01-28 21:52:00,43.0,42.0,-100.00,WNW,297,4.0,9.0,97,0.01,,,0.31,0.000000,,2013-01-29 05:52:00,
2013-01-28 22:01:00,43.0,42.0,-100.00,WNW,297,4.0,9.0,97,0.01,,,0.31,0.000000,,2013-01-29 06:01:00,
2013-01-28 22:11:00,43.0,42.0,-100.00,WNW,297,4.0,9.0,97,0.01,,,0.31,0.000000,,2013-01-29 06:11:00,
2013-01-28 22:32:00,43.0,42.0,-100.00,NW,304,4.0,7.0,97,0.01,,,0.23,0.000000,,2013-01-29 06:32:00,
2013-01-28 22:42:00,43.0,42.0,-100.00,NW,304,4.0,7.0,97,0.01,,,0.23,0.000000,,2013-01-29 06:42:00,
2013-01-28 22:52:00,43.0,42.0,-100.00,NW,304,4.0,7.0,97,0.01,,,0.23,0.000000,,2013-01-29 06:52:00,
2013-01-28 23:01:00,43.0,42.0,-100.00,NW,304,4.0,7.0,97,0.01,,,0.23,0.000000,,2013-01-29 07:01:00,
2013-01-28 23:11:00,43.0,42.0,-100.00,NW,304,4.0,7.0,97,0.01,,,0.23,0.000000,,2013-01-29 07:11:00,
2013-01-28 23:32:00,43.0,42.0,-100.00,WNW,291,4.0,8.0,97,0.01,,,0.23,0.000000,,2013-01-29 07:32:00,
2013-01-28 23:42:00,43.0,42.0,-100.00,WNW,291,4.0,8.0,97,0.01,,,0.23,0.000000,,2013-01-29 07:42:00,
2013-01-28 23:52:00,43.0,42.0,-100.00,WNW,291,4.0,8.0,97,0.01,,,0.23,0.000000,,2013-01-29 07:52:00,